sensor_id;sensor_type;location;lat;lon;timestamp;temperature;humidity
17190;DHT22;8710;49.880;8.272;2022-07-01T00:03:24;16.50;99.90
17190;DHT22;8710;49.880;8.272;2022-07-01T00:05:51;16.40;99.90
17190;DHT22;8710;49.880;8.272;2022-07-01T00:10:45;16.40;99.90
17190;DHT22;8710;49.880;8.272;2022-07-01T00:15:39;16.30;99.90
17190;DHT22;8710;49.880;8.272;2022-07-01T00:23:01;16.30;99.90
17190;DHT22;8710;49.880;8.272;2022-07-01T00:30:23;16.20;99.90
17190;DHT22;8710;49.880;8.272;2022-07-01T00:32:50;16.30;99.90
17190;DHT22;8710;49.880;8.272;2022-07-01T00:40:14;16.20;99.90
17190;DHT22;8710;49.880;8.272;2022-07-01T00:45:10;16.20;99.90
17190;DHT22;8710;49.880;8.272;2022-07-01T00:50:07;16.10;99.90
17190;DHT22;8710;49.880;8.272;2022-07-01T00:52:35;16.10;99.90
17190;DHT22;8710;49.880;8.272;2022-07-01T00:55:05;16.10;99.90
17190;DHT22;8710;49.880;8.272;2022-07-01T01:02:28;15.90;99.90
17190;DHT22;8710;49.880;8.272;2022-07-01T01:07:24;15.80;99.90
17190;DHT22;8710;49.880;8.272;2022-07-01T01:09:51;15.70;99.90
17190;DHT22;8710;49.880;8.272;2022-07-01T01:12:20;15.80;99.90
17190;DHT22;8710;49.880;8.272;2022-07-01T01:14:48;15.80;99.90
17190;DHT22;8710;49.880;8.272;2022-07-01T01:17:16;15.80;99.90
17190;DHT22;8710;49.880;8.272;2022-07-01T01:19:44;15.80;99.90
17190;DHT22;8710;49.880;8.272;2022-07-01T01:22:14;15.80;99.90
17190;DHT22;8710;49.880;8.272;2022-07-01T01:24:42;15.80;99.90
17190;DHT22;8710;49.880;8.272;2022-07-01T01:27:10;15.90;99.90
17190;DHT22;8710;49.880;8.272;2022-07-01T01:29:38;15.90;99.90
17190;DHT22;8710;49.880;8.272;2022-07-01T01:32:06;15.90;99.90
17190;DHT22;8710;49.880;8.272;2022-07-01T01:37:01;15.90;99.90
17190;DHT22;8710;49.880;8.272;2022-07-01T01:41:57;15.80;99.90
17190;DHT22;8710;49.880;8.272;2022-07-01T01:46:51;15.80;99.90
17190;DHT22;8710;49.880;8.272;2022-07-01T01:51:45;15.80;99.90
17190;DHT22;8710;49.880;8.272;2022-07-01T01:56:40;15.80;99.90
17190;DHT22;8710;49.880;8.272;2022-07-01T01:59:07;15.70;99.90
17190;DHT22;8710;49.880;8.272;2022-07-01T02:01:34;15.70;99.90
17190;DHT22;8710;49.880;8.272;2022-07-01T02:04:01;15.80;99.90
17190;DHT22;8710;49.880;8.272;2022-07-01T02:06:28;15.70;99.90
17190;DHT22;8710;49.880;8.272;2022-07-01T02:11:22;15.80;99.90
17190;DHT22;8710;49.880;8.272;2022-07-01T02:13:50;15.80;99.90
17190;DHT22;8710;49.880;8.272;2022-07-01T02:18:44;15.80;99.90
17190;DHT22;8710;49.880;8.272;2022-07-01T02:23:38;15.70;99.90
17190;DHT22;8710;49.880;8.272;2022-07-01T02:26:06;15.80;99.90
17190;DHT22;8710;49.880;8.272;2022-07-01T02:28:32;15.70;99.90
17190;DHT22;8710;49.880;8.272;2022-07-01T02:31:01;15.60;99.90
17190;DHT22;8710;49.880;8.272;2022-07-01T02:38:22;15.60;99.90
17190;DHT22;8710;49.880;8.272;2022-07-01T02:43:16;15.60;99.90
17190;DHT22;8710;49.880;8.272;2022-07-01T02:50:39;15.50;99.90
17190;DHT22;8710;49.880;8.272;2022-07-01T02:55:33;15.40;99.90
17190;DHT22;8710;49.880;8.272;2022-07-01T03:00:29;15.30;99.90
17190;DHT22;8710;49.880;8.272;2022-07-01T03:05:25;15.20;99.90
17190;DHT22;8710;49.880;8.272;2022-07-01T03:07:52;15.20;99.90
17190;DHT22;8710;49.880;8.272;2022-07-01T03:12:46;15.10;99.90
17190;DHT22;8710;49.880;8.272;2022-07-01T03:15:14;15.10;99.90
17190;DHT22;8710;49.880;8.272;2022-07-01T03:20:12;15.10;99.90
17190;DHT22;8710;49.880;8.272;2022-07-01T03:22:41;15.00;99.90
17190;DHT22;8710;49.880;8.272;2022-07-01T03:25:09;15.00;99.90
17190;DHT22;8710;49.880;8.272;2022-07-01T03:30:05;15.00;99.90
17190;DHT22;8710;49.880;8.272;2022-07-01T03:32:32;14.90;99.90
17190;DHT22;8710;49.880;8.272;2022-07-01T03:34:59;14.90;99.90
17190;DHT22;8710;49.880;8.272;2022-07-01T03:37:47;14.90;99.90
17190;DHT22;8710;49.880;8.272;2022-07-01T03:42:41;14.90;99.90
17190;DHT22;8710;49.880;8.272;2022-07-01T03:45:09;14.90;99.90
17190;DHT22;8710;49.880;8.272;2022-07-01T03:50:04;14.90;99.90
17190;DHT22;8710;49.880;8.272;2022-07-01T03:54:59;14.90;99.90
17190;DHT22;8710;49.880;8.272;2022-07-01T03:57:25;14.90;99.90
17190;DHT22;8710;49.880;8.272;2022-07-01T03:59:52;14.80;99.90
17190;DHT22;8710;49.880;8.272;2022-07-01T04:04:46;14.80;99.90
17190;DHT22;8710;49.880;8.272;2022-07-01T04:09:40;14.80;99.90
17190;DHT22;8710;49.880;8.272;2022-07-01T04:14:38;14.90;99.90
17190;DHT22;8710;49.880;8.272;2022-07-01T04:19:32;14.90;99.90
17190;DHT22;8710;49.880;8.272;2022-07-01T04:24:47;14.90;99.90
17190;DHT22;8710;49.880;8.272;2022-07-01T04:27:15;14.80;99.90
17190;DHT22;8710;49.880;8.272;2022-07-01T04:32:09;14.80;99.90
17190;DHT22;8710;49.880;8.272;2022-07-01T04:37:03;14.90;99.90
17190;DHT22;8710;49.880;8.272;2022-07-01T04:41:57;14.90;99.90
17190;DHT22;8710;49.880;8.272;2022-07-01T04:46:55;14.90;99.90
17190;DHT22;8710;49.880;8.272;2022-07-01T04:49:22;15.00;99.90
17190;DHT22;8710;49.880;8.272;2022-07-01T04:54:16;15.00;99.90
17190;DHT22;8710;49.880;8.272;2022-07-01T05:01:40;15.00;99.90
17190;DHT22;8710;49.880;8.272;2022-07-01T05:06:34;15.10;99.90
17190;DHT22;8710;49.880;8.272;2022-07-01T05:19:29;15.30;99.90
17190;DHT22;8710;49.880;8.272;2022-07-01T05:22:13;15.50;99.90
17190;DHT22;8710;49.880;8.272;2022-07-01T05:27:07;15.60;99.90
17190;DHT22;8710;49.880;8.272;2022-07-01T05:29:35;15.70;99.90
17190;DHT22;8710;49.880;8.272;2022-07-01T05:32:04;15.80;99.90
17190;DHT22;8710;49.880;8.272;2022-07-01T05:34:31;15.80;99.90
17190;DHT22;8710;49.880;8.272;2022-07-01T05:39:25;15.90;99.90
17190;DHT22;8710;49.880;8.272;2022-07-01T05:41:52;15.90;99.90
17190;DHT22;8710;49.880;8.272;2022-07-01T05:51:42;16.50;99.90
17190;DHT22;8710;49.880;8.272;2022-07-01T06:13:49;18.30;99.90
17190;DHT22;8710;49.880;8.272;2022-07-01T06:18:43;18.30;99.90
17190;DHT22;8710;49.880;8.272;2022-07-01T06:23:38;18.50;99.90
17190;DHT22;8710;49.880;8.272;2022-07-01T06:26:05;18.40;99.90
17190;DHT22;8710;49.880;8.272;2022-07-01T06:30:59;18.50;99.90
17190;DHT22;8710;49.880;8.272;2022-07-01T06:38:23;18.60;99.90
17190;DHT22;8710;49.880;8.272;2022-07-01T06:43:37;18.50;99.90
17190;DHT22;8710;49.880;8.272;2022-07-01T06:55:54;17.90;99.90
17190;DHT22;8710;49.880;8.272;2022-07-01T06:58:21;17.90;99.90
17190;DHT22;8710;49.880;8.272;2022-07-01T07:03:15;17.70;99.90
17190;DHT22;8710;49.880;8.272;2022-07-01T07:08:09;17.40;99.90
17190;DHT22;8710;49.880;8.272;2022-07-01T07:17:59;17.10;99.90
17190;DHT22;8710;49.880;8.272;2022-07-01T07:27:48;16.90;99.90
17190;DHT22;8710;49.880;8.272;2022-07-01T07:32:44;16.90;99.90
17190;DHT22;8710;49.880;8.272;2022-07-01T07:40:07;16.90;99.90
17190;DHT22;8710;49.880;8.272;2022-07-01T07:54:55;18.50;99.90
17190;DHT22;8710;49.880;8.272;2022-07-01T07:59:49;16.50;99.90
17190;DHT22;8710;49.880;8.272;2022-07-01T08:07:11;16.70;99.90
17190;DHT22;8710;49.880;8.272;2022-07-01T08:17:06;17.40;99.90
17190;DHT22;8710;49.880;8.272;2022-07-01T08:19:32;17.40;99.90
17190;DHT22;8710;49.880;8.272;2022-07-01T08:24:28;17.60;99.90
17190;DHT22;8710;49.880;8.272;2022-07-01T08:29:22;17.80;99.90
17190;DHT22;8710;49.880;8.272;2022-07-01T08:31:49;18.10;99.90
17190;DHT22;8710;49.880;8.272;2022-07-01T08:36:43;18.40;99.90
17190;DHT22;8710;49.880;8.272;2022-07-01T08:39:11;18.40;99.90
17190;DHT22;8710;49.880;8.272;2022-07-01T08:41:39;18.60;99.90
17190;DHT22;8710;49.880;8.272;2022-07-01T08:44:06;18.70;99.90
17190;DHT22;8710;49.880;8.272;2022-07-01T08:49:01;18.90;99.90
17190;DHT22;8710;49.880;8.272;2022-07-01T08:53:55;18.80;99.90
17190;DHT22;8710;49.880;8.272;2022-07-01T08:56:23;18.70;99.90
17190;DHT22;8710;49.880;8.272;2022-07-01T08:59:11;18.50;99.90
17190;DHT22;8710;49.880;8.272;2022-07-01T09:04:23;18.30;99.90
17190;DHT22;8710;49.880;8.272;2022-07-01T09:11:49;18.10;99.90
17190;DHT22;8710;49.880;8.272;2022-07-01T09:14:21;18.10;99.90
17190;DHT22;8710;49.880;8.272;2022-07-01T09:24:27;18.50;99.90
17190;DHT22;8710;49.880;8.272;2022-07-01T09:26:57;18.70;99.90
17190;DHT22;8710;49.880;8.272;2022-07-01T09:34:25;19.90;99.90
17190;DHT22;8710;49.880;8.272;2022-07-01T09:36:53;20.30;99.90
17190;DHT22;8710;49.880;8.272;2022-07-01T09:39:21;20.80;99.90
17190;DHT22;8710;49.880;8.272;2022-07-01T09:46:54;22.60;99.20
17190;DHT22;8710;49.880;8.272;2022-07-01T09:49:21;23.20;96.60
17190;DHT22;8710;49.880;8.272;2022-07-01T09:54:16;23.50;95.20
17190;DHT22;8710;49.880;8.272;2022-07-01T10:01:40;26.40;91.50
17190;DHT22;8710;49.880;8.272;2022-07-01T10:04:08;26.50;89.30
17190;DHT22;8710;49.880;8.272;2022-07-01T10:06:58;27.40;90.80
17190;DHT22;8710;49.880;8.272;2022-07-01T10:09:54;28.00;81.50
17190;DHT22;8710;49.880;8.272;2022-07-01T10:12:38;29.30;80.00
17190;DHT22;8710;49.880;8.272;2022-07-01T10:15:08;29.90;76.90
17190;DHT22;8710;49.880;8.272;2022-07-01T10:17:40;30.70;72.00
17190;DHT22;8710;49.880;8.272;2022-07-01T10:20:11;30.90;68.20
17190;DHT22;8710;49.880;8.272;2022-07-01T10:22:39;29.20;62.80
17190;DHT22;8710;49.880;8.272;2022-07-01T10:25:32;28.80;68.90
17190;DHT22;8710;49.880;8.272;2022-07-01T10:28:17;27.50;70.80
17190;DHT22;8710;49.880;8.272;2022-07-01T10:30:59;26.50;72.40
17190;DHT22;8710;49.880;8.272;2022-07-01T10:33:40;26.20;78.30
17190;DHT22;8710;49.880;8.272;2022-07-01T10:36:09;26.80;77.50
17190;DHT22;8710;49.880;8.272;2022-07-01T10:41:38;29.20;67.00
17190;DHT22;8710;49.880;8.272;2022-07-01T10:44:07;30.20;65.80
17190;DHT22;8710;49.880;8.272;2022-07-01T10:46:38;30.90;61.00
17190;DHT22;8710;49.880;8.272;2022-07-01T10:49:08;32.10;59.00
17190;DHT22;8710;49.880;8.272;2022-07-01T10:51:49;33.50;56.30
17190;DHT22;8710;49.880;8.272;2022-07-01T10:54:47;33.00;50.80
17190;DHT22;8710;49.880;8.272;2022-07-01T10:57:20;33.10;52.90
17190;DHT22;8710;49.880;8.272;2022-07-01T10:59:49;33.30;54.70
17190;DHT22;8710;49.880;8.272;2022-07-01T11:02:18;33.00;51.20
17190;DHT22;8710;49.880;8.272;2022-07-01T11:04:47;31.80;52.40
17190;DHT22;8710;49.880;8.272;2022-07-01T11:07:14;32.00;53.50
17190;DHT22;8710;49.880;8.272;2022-07-01T11:09:41;32.00;51.10
17190;DHT22;8710;49.880;8.272;2022-07-01T11:12:09;30.90;52.50
17190;DHT22;8710;49.880;8.272;2022-07-01T11:14:37;30.10;54.10
17190;DHT22;8710;49.880;8.272;2022-07-01T11:17:04;29.70;57.00
17190;DHT22;8710;49.880;8.272;2022-07-01T11:19:32;30.60;55.20
17190;DHT22;8710;49.880;8.272;2022-07-01T11:22:00;31.60;51.50
17190;DHT22;8710;49.880;8.272;2022-07-01T11:24:28;32.10;48.80
17190;DHT22;8710;49.880;8.272;2022-07-01T11:26:57;31.20;49.90
17190;DHT22;8710;49.880;8.272;2022-07-01T11:29:28;30.10;52.20
17190;DHT22;8710;49.880;8.272;2022-07-01T11:31:55;29.10;55.10
17190;DHT22;8710;49.880;8.272;2022-07-01T11:34:22;29.90;54.10
17190;DHT22;8710;49.880;8.272;2022-07-01T11:39:35;33.00;48.40
17190;DHT22;8710;49.880;8.272;2022-07-01T11:42:04;34.40;43.60
17190;DHT22;8710;49.880;8.272;2022-07-01T11:44:34;35.70;39.80
17190;DHT22;8710;49.880;8.272;2022-07-01T11:47:03;36.60;39.60
17190;DHT22;8710;49.880;8.272;2022-07-01T11:49:30;36.70;36.30
17190;DHT22;8710;49.880;8.272;2022-07-01T11:51:59;36.30;37.10
17190;DHT22;8710;49.880;8.272;2022-07-01T11:54:26;34.90;38.60
17190;DHT22;8710;49.880;8.272;2022-07-01T11:56:55;33.20;40.80
17190;DHT22;8710;49.880;8.272;2022-07-01T11:59:33;31.70;43.10
17190;DHT22;8710;49.880;8.272;2022-07-01T12:02:02;29.80;47.60
17190;DHT22;8710;49.880;8.272;2022-07-01T12:04:30;28.90;49.50
17190;DHT22;8710;49.880;8.272;2022-07-01T12:06:58;28.20;52.30
17190;DHT22;8710;49.880;8.272;2022-07-01T12:09:26;27.50;54.10
17190;DHT22;8710;49.880;8.272;2022-07-01T12:11:54;26.90;57.50
17190;DHT22;8710;49.880;8.272;2022-07-01T12:14:21;26.40;59.10
17190;DHT22;8710;49.880;8.272;2022-07-01T12:16:51;26.00;60.70
17190;DHT22;8710;49.880;8.272;2022-07-01T12:19:19;25.90;62.60
17190;DHT22;8710;49.880;8.272;2022-07-01T12:21:52;26.00;63.50
17190;DHT22;8710;49.880;8.272;2022-07-01T12:24:20;26.40;62.80
17190;DHT22;8710;49.880;8.272;2022-07-01T12:26:50;26.80;62.30
17190;DHT22;8710;49.880;8.272;2022-07-01T12:29:20;27.50;62.80
17190;DHT22;8710;49.880;8.272;2022-07-01T12:32:01;29.10;59.10
17190;DHT22;8710;49.880;8.272;2022-07-01T12:34:41;30.40;48.50
17190;DHT22;8710;49.880;8.272;2022-07-01T12:37:10;31.00;48.50
17190;DHT22;8710;49.880;8.272;2022-07-01T12:39:46;31.30;46.80
17190;DHT22;8710;49.880;8.272;2022-07-01T12:42:24;31.70;46.70
17190;DHT22;8710;49.880;8.272;2022-07-01T12:44:53;31.90;45.50
17190;DHT22;8710;49.880;8.272;2022-07-01T12:47:24;31.40;45.60
17190;DHT22;8710;49.880;8.272;2022-07-01T12:50:11;30.10;47.60
17190;DHT22;8710;49.880;8.272;2022-07-01T12:52:40;28.90;49.30
17190;DHT22;8710;49.880;8.272;2022-07-01T12:55:18;27.80;51.70
17190;DHT22;8710;49.880;8.272;2022-07-01T12:57:46;27.10;53.80
17190;DHT22;8710;49.880;8.272;2022-07-01T13:00:16;26.50;58.50
17190;DHT22;8710;49.880;8.272;2022-07-01T13:02:43;26.10;59.30
17190;DHT22;8710;49.880;8.272;2022-07-01T13:07:38;25.30;62.20
17190;DHT22;8710;49.880;8.272;2022-07-01T13:10:05;24.90;65.40
17190;DHT22;8710;49.880;8.272;2022-07-01T13:12:35;24.70;66.00
17190;DHT22;8710;49.880;8.272;2022-07-01T13:15:02;24.30;67.50
17190;DHT22;8710;49.880;8.272;2022-07-01T13:17:33;24.20;69.00
17190;DHT22;8710;49.880;8.272;2022-07-01T13:24:55;23.00;91.10
17190;DHT22;8710;49.880;8.272;2022-07-01T13:27:22;22.90;90.50
17190;DHT22;8710;49.880;8.272;2022-07-01T13:29:50;22.90;91.40
17190;DHT22;8710;49.880;8.272;2022-07-01T13:34:51;23.00;91.20
17190;DHT22;8710;49.880;8.272;2022-07-01T13:37:18;23.30;90.80
17190;DHT22;8710;49.880;8.272;2022-07-01T13:39:45;23.60;90.30
17190;DHT22;8710;49.880;8.272;2022-07-01T13:44:41;24.60;84.00
17190;DHT22;8710;49.880;8.272;2022-07-01T13:47:13;25.40;81.30
17190;DHT22;8710;49.880;8.272;2022-07-01T13:49:42;26.60;75.20
17190;DHT22;8710;49.880;8.272;2022-07-01T13:52:15;27.20;64.30
17190;DHT22;8710;49.880;8.272;2022-07-01T13:54:45;27.60;59.00
17190;DHT22;8710;49.880;8.272;2022-07-01T13:57:16;27.60;55.80
17190;DHT22;8710;49.880;8.272;2022-07-01T13:59:47;27.60;56.90
17190;DHT22;8710;49.880;8.272;2022-07-01T14:02:16;27.90;56.50
17190;DHT22;8710;49.880;8.272;2022-07-01T14:04:45;28.40;55.00
17190;DHT22;8710;49.880;8.272;2022-07-01T14:07:15;28.70;50.80
17190;DHT22;8710;49.880;8.272;2022-07-01T14:14:44;28.50;50.40
17190;DHT22;8710;49.880;8.272;2022-07-01T14:22:12;26.30;54.40
17190;DHT22;8710;49.880;8.272;2022-07-01T14:27:14;25.90;58.10
17190;DHT22;8710;49.880;8.272;2022-07-01T14:32:13;25.30;58.90
17190;DHT22;8710;49.880;8.272;2022-07-01T14:34:42;25.30;59.30
17190;DHT22;8710;49.880;8.272;2022-07-01T14:37:12;25.20;60.00
17190;DHT22;8710;49.880;8.272;2022-07-01T14:39:45;25.10;59.60
17190;DHT22;8710;49.880;8.272;2022-07-01T14:42:12;25.00;58.90
17190;DHT22;8710;49.880;8.272;2022-07-01T14:47:06;24.70;60.50
17190;DHT22;8710;49.880;8.272;2022-07-01T14:56:57;24.70;64.70
17190;DHT22;8710;49.880;8.272;2022-07-01T14:59:24;24.90;72.30
17190;DHT22;8710;49.880;8.272;2022-07-01T15:01:51;24.90;70.90
17190;DHT22;8710;49.880;8.272;2022-07-01T15:06:45;24.70;71.60
17190;DHT22;8710;49.880;8.272;2022-07-01T15:11:39;24.60;70.10
17190;DHT22;8710;49.880;8.272;2022-07-01T15:14:07;24.60;72.00
17190;DHT22;8710;49.880;8.272;2022-07-01T15:19:01;24.60;70.00
17190;DHT22;8710;49.880;8.272;2022-07-01T15:21:28;24.60;68.80
17190;DHT22;8710;49.880;8.272;2022-07-01T15:26:22;24.40;67.30
17190;DHT22;8710;49.880;8.272;2022-07-01T15:28:50;24.20;66.70
17190;DHT22;8710;49.880;8.272;2022-07-01T15:31:18;24.20;67.50
17190;DHT22;8710;49.880;8.272;2022-07-01T15:36:12;24.10;71.10
17190;DHT22;8710;49.880;8.272;2022-07-01T15:38:39;24.00;73.50
17190;DHT22;8710;49.880;8.272;2022-07-01T15:41:06;23.90;73.20
17190;DHT22;8710;49.880;8.272;2022-07-01T15:43:33;23.90;74.20
17190;DHT22;8710;49.880;8.272;2022-07-01T15:46:01;23.80;74.70
17190;DHT22;8710;49.880;8.272;2022-07-01T15:48:29;23.80;76.30
17190;DHT22;8710;49.880;8.272;2022-07-01T15:50:56;23.70;75.00
17190;DHT22;8710;49.880;8.272;2022-07-01T15:53:23;23.50;74.20
17190;DHT22;8710;49.880;8.272;2022-07-01T15:55:50;23.40;74.40
17190;DHT22;8710;49.880;8.272;2022-07-01T15:58:18;23.30;76.80
17190;DHT22;8710;49.880;8.272;2022-07-01T16:00:47;23.20;78.00
17190;DHT22;8710;49.880;8.272;2022-07-01T16:03:14;23.10;77.80
17190;DHT22;8710;49.880;8.272;2022-07-01T16:05:45;23.00;78.20
17190;DHT22;8710;49.880;8.272;2022-07-01T16:08:18;23.10;79.80
17190;DHT22;8710;49.880;8.272;2022-07-01T16:10:46;23.30;80.30
17190;DHT22;8710;49.880;8.272;2022-07-01T16:13:16;23.60;80.40
17190;DHT22;8710;49.880;8.272;2022-07-01T16:15:45;24.00;75.90
17190;DHT22;8710;49.880;8.272;2022-07-01T16:18:12;24.20;72.10
17190;DHT22;8710;49.880;8.272;2022-07-01T16:20:41;23.90;70.10
17190;DHT22;8710;49.880;8.272;2022-07-01T16:23:12;23.70;70.30
17190;DHT22;8710;49.880;8.272;2022-07-01T16:25:40;23.50;71.30
17190;DHT22;8710;49.880;8.272;2022-07-01T16:28:08;23.30;72.60
17190;DHT22;8710;49.880;8.272;2022-07-01T16:30:37;23.20;73.50
17190;DHT22;8710;49.880;8.272;2022-07-01T16:33:05;23.00;74.10
17190;DHT22;8710;49.880;8.272;2022-07-01T16:35:40;23.00;73.70
17190;DHT22;8710;49.880;8.272;2022-07-01T16:38:10;23.00;73.80
17190;DHT22;8710;49.880;8.272;2022-07-01T16:40:42;22.90;73.80
17190;DHT22;8710;49.880;8.272;2022-07-01T16:43:12;23.00;76.00
17190;DHT22;8710;49.880;8.272;2022-07-01T16:45:40;23.00;77.30
17190;DHT22;8710;49.880;8.272;2022-07-01T16:48:08;23.10;74.70
17190;DHT22;8710;49.880;8.272;2022-07-01T16:50:40;23.20;74.80
17190;DHT22;8710;49.880;8.272;2022-07-01T16:53:13;23.20;74.60
17190;DHT22;8710;49.880;8.272;2022-07-01T16:55:42;23.30;73.20
17190;DHT22;8710;49.880;8.272;2022-07-01T16:58:14;23.30;73.50
17190;DHT22;8710;49.880;8.272;2022-07-01T17:00:41;23.40;74.10
17190;DHT22;8710;49.880;8.272;2022-07-01T17:03:08;23.40;74.10
17190;DHT22;8710;49.880;8.272;2022-07-01T17:05:35;23.30;74.00
17190;DHT22;8710;49.880;8.272;2022-07-01T17:08:03;23.30;75.50
17190;DHT22;8710;49.880;8.272;2022-07-01T17:10:33;23.10;77.40
17190;DHT22;8710;49.880;8.272;2022-07-01T17:13:01;23.00;78.10
17190;DHT22;8710;49.880;8.272;2022-07-01T17:15:29;23.00;78.10
17190;DHT22;8710;49.880;8.272;2022-07-01T17:20:23;22.70;78.00
17190;DHT22;8710;49.880;8.272;2022-07-01T17:22:56;22.70;80.00
17190;DHT22;8710;49.880;8.272;2022-07-01T17:25:35;22.60;78.50
17190;DHT22;8710;49.880;8.272;2022-07-01T17:28:24;22.60;79.00
17190;DHT22;8710;49.880;8.272;2022-07-01T17:31:03;22.40;79.50
17190;DHT22;8710;49.880;8.272;2022-07-01T17:33:31;22.30;80.80
17190;DHT22;8710;49.880;8.272;2022-07-01T17:35:59;22.20;81.30
17190;DHT22;8710;49.880;8.272;2022-07-01T17:38:29;22.10;82.50
17190;DHT22;8710;49.880;8.272;2022-07-01T17:41:00;22.00;82.90
17190;DHT22;8710;49.880;8.272;2022-07-01T17:43:31;21.90;83.00
17190;DHT22;8710;49.880;8.272;2022-07-01T17:45:58;21.90;84.10
17190;DHT22;8710;49.880;8.272;2022-07-01T17:48:26;21.90;85.10
17190;DHT22;8710;49.880;8.272;2022-07-01T17:50:56;21.90;84.80
17190;DHT22;8710;49.880;8.272;2022-07-01T17:53:23;21.90;84.80
17190;DHT22;8710;49.880;8.272;2022-07-01T17:55:52;21.90;84.90
17190;DHT22;8710;49.880;8.272;2022-07-01T17:58:22;22.00;85.00
17190;DHT22;8710;49.880;8.272;2022-07-01T18:00:50;22.00;83.10
17190;DHT22;8710;49.880;8.272;2022-07-01T18:03:21;22.00;83.60
17190;DHT22;8710;49.880;8.272;2022-07-01T18:05:49;22.10;83.50
17190;DHT22;8710;49.880;8.272;2022-07-01T18:10:45;22.30;80.80
17190;DHT22;8710;49.880;8.272;2022-07-01T18:13:16;22.20;81.60
17190;DHT22;8710;49.880;8.272;2022-07-01T18:15:48;22.10;82.60
17190;DHT22;8710;49.880;8.272;2022-07-01T18:18:23;22.00;81.50
17190;DHT22;8710;49.880;8.272;2022-07-01T18:20:52;21.90;82.50
17190;DHT22;8710;49.880;8.272;2022-07-01T18:23:25;21.80;83.60
17190;DHT22;8710;49.880;8.272;2022-07-01T18:25:57;21.70;84.40
17190;DHT22;8710;49.880;8.272;2022-07-01T18:28:28;21.60;84.80
17190;DHT22;8710;49.880;8.272;2022-07-01T18:31:00;21.50;85.30
17190;DHT22;8710;49.880;8.272;2022-07-01T18:33:33;21.40;85.70
17190;DHT22;8710;49.880;8.272;2022-07-01T18:36:03;21.30;86.60
17190;DHT22;8710;49.880;8.272;2022-07-01T18:38:34;21.20;87.70
17190;DHT22;8710;49.880;8.272;2022-07-01T18:41:01;21.20;88.40
17190;DHT22;8710;49.880;8.272;2022-07-01T18:43:28;21.20;88.30
17190;DHT22;8710;49.880;8.272;2022-07-01T18:45:55;21.20;89.00
17190;DHT22;8710;49.880;8.272;2022-07-01T18:48:23;21.10;89.00
17190;DHT22;8710;49.880;8.272;2022-07-01T18:50:50;21.10;90.20
17190;DHT22;8710;49.880;8.272;2022-07-01T18:53:17;21.10;90.00
17190;DHT22;8710;49.880;8.272;2022-07-01T18:55:44;21.10;90.00
17190;DHT22;8710;49.880;8.272;2022-07-01T18:58:11;21.20;90.20
17190;DHT22;8710;49.880;8.272;2022-07-01T19:00:42;21.20;90.60
17190;DHT22;8710;49.880;8.272;2022-07-01T19:03:09;21.10;91.00
17190;DHT22;8710;49.880;8.272;2022-07-01T19:05:37;21.20;90.80
17190;DHT22;8710;49.880;8.272;2022-07-01T19:10:31;21.00;90.20
17190;DHT22;8710;49.880;8.272;2022-07-01T19:15:25;20.80;91.70
17190;DHT22;8710;49.880;8.272;2022-07-01T19:20:24;20.50;90.60
17190;DHT22;8710;49.880;8.272;2022-07-01T19:22:52;20.40;90.00
17190;DHT22;8710;49.880;8.272;2022-07-01T19:25:19;20.20;90.10
17190;DHT22;8710;49.880;8.272;2022-07-01T19:30:13;20.00;84.60
17190;DHT22;8710;49.880;8.272;2022-07-01T19:32:40;19.90;83.70
17190;DHT22;8710;49.880;8.272;2022-07-01T19:35:07;19.80;82.90
17190;DHT22;8710;49.880;8.272;2022-07-01T19:40:04;19.60;82.60
17190;DHT22;8710;49.880;8.272;2022-07-01T19:44:58;19.40;83.50
17190;DHT22;8710;49.880;8.272;2022-07-01T19:47:25;19.30;84.00
17190;DHT22;8710;49.880;8.272;2022-07-01T19:49:52;19.20;84.30
17190;DHT22;8710;49.880;8.272;2022-07-01T19:54:46;19.00;85.70
17190;DHT22;8710;49.880;8.272;2022-07-01T19:57:14;18.90;86.10
17190;DHT22;8710;49.880;8.272;2022-07-01T20:02:08;18.80;87.20
17190;DHT22;8710;49.880;8.272;2022-07-01T20:04:35;18.70;88.10
17190;DHT22;8710;49.880;8.272;2022-07-01T20:07:04;18.60;88.60
17190;DHT22;8710;49.880;8.272;2022-07-01T20:09:33;18.60;88.00
17190;DHT22;8710;49.880;8.272;2022-07-01T20:14:28;18.50;88.40
17190;DHT22;8710;49.880;8.272;2022-07-01T20:16:55;18.40;89.40
17190;DHT22;8710;49.880;8.272;2022-07-01T20:19:26;18.40;90.00
17190;DHT22;8710;49.880;8.272;2022-07-01T20:21:52;18.30;90.00
17190;DHT22;8710;49.880;8.272;2022-07-01T20:24:19;18.20;90.50
17190;DHT22;8710;49.880;8.272;2022-07-01T20:29:18;18.20;90.90
17190;DHT22;8710;49.880;8.272;2022-07-01T20:31:46;18.10;90.90
17190;DHT22;8710;49.880;8.272;2022-07-01T20:34:13;18.10;91.00
17190;DHT22;8710;49.880;8.272;2022-07-01T20:36:40;18.10;91.00
17190;DHT22;8710;49.880;8.272;2022-07-01T20:39:07;18.10;91.30
17190;DHT22;8710;49.880;8.272;2022-07-01T20:41:35;18.10;91.30
17190;DHT22;8710;49.880;8.272;2022-07-01T20:44:02;18.10;91.40
17190;DHT22;8710;49.880;8.272;2022-07-01T20:46:30;18.00;91.40
17190;DHT22;8710;49.880;8.272;2022-07-01T20:48:59;17.90;91.50
17190;DHT22;8710;49.880;8.272;2022-07-01T20:51:26;17.90;91.60
17190;DHT22;8710;49.880;8.272;2022-07-01T20:53:53;17.80;91.70
17190;DHT22;8710;49.880;8.272;2022-07-01T20:56:21;17.80;91.80
17190;DHT22;8710;49.880;8.272;2022-07-01T21:01:16;17.70;92.00
17190;DHT22;8710;49.880;8.272;2022-07-01T21:03:43;17.60;92.50
17190;DHT22;8710;49.880;8.272;2022-07-01T21:06:11;17.60;92.70
17190;DHT22;8710;49.880;8.272;2022-07-01T21:08:38;17.60;92.90
17190;DHT22;8710;49.880;8.272;2022-07-01T21:11:05;17.50;93.50
17190;DHT22;8710;49.880;8.272;2022-07-01T21:15:59;17.30;93.40
17190;DHT22;8710;49.880;8.272;2022-07-01T21:20:54;17.20;93.70
17190;DHT22;8710;49.880;8.272;2022-07-01T21:23:22;17.10;93.80
17190;DHT22;8710;49.880;8.272;2022-07-01T21:25:49;17.00;94.10
17190;DHT22;8710;49.880;8.272;2022-07-01T21:28:16;17.00;94.10
17190;DHT22;8710;49.880;8.272;2022-07-01T21:30:42;16.90;94.80
17190;DHT22;8710;49.880;8.272;2022-07-01T21:33:09;16.90;95.00
17190;DHT22;8710;49.880;8.272;2022-07-01T21:38:04;16.70;95.20
17190;DHT22;8710;49.880;8.272;2022-07-01T21:40:34;16.70;95.10
17190;DHT22;8710;49.880;8.272;2022-07-01T21:43:02;16.70;95.30
17190;DHT22;8710;49.880;8.272;2022-07-01T21:45:29;16.60;95.10
17190;DHT22;8710;49.880;8.272;2022-07-01T21:50:24;16.60;97.50
17190;DHT22;8710;49.880;8.272;2022-07-01T21:57:52;16.40;98.00
17190;DHT22;8710;49.880;8.272;2022-07-01T22:00:21;16.30;97.90
17190;DHT22;8710;49.880;8.272;2022-07-01T22:02:49;16.30;97.80
17190;DHT22;8710;49.880;8.272;2022-07-01T22:05:17;16.10;98.30
17190;DHT22;8710;49.880;8.272;2022-07-01T22:07:44;16.10;98.80
17190;DHT22;8710;49.880;8.272;2022-07-01T22:10:12;16.00;98.80
17190;DHT22;8710;49.880;8.272;2022-07-01T22:12:41;15.90;98.80
17190;DHT22;8710;49.880;8.272;2022-07-01T22:15:12;15.90;99.00
17190;DHT22;8710;49.880;8.272;2022-07-01T22:17:43;15.80;99.20
17190;DHT22;8710;49.880;8.272;2022-07-01T22:20:13;15.80;99.30
17190;DHT22;8710;49.880;8.272;2022-07-01T22:22:43;15.80;99.40
17190;DHT22;8710;49.880;8.272;2022-07-01T22:25:10;15.80;99.40